Holts Summit, Missouri
Current Conditions -  °F | °C
As of 1:53 PM on Sunday 25 Jan 2015 (Local Time) from KJEF Reporting Station
Light Rain Light Rain  
Wind Chill:   Ceiling: 800
Heat Index:   Visibility: 6mi
Dew Point:   Wind: 12mph
Humidity: 93%   Direction: 300°WNW
Pressure: 29.69"   Gusts: NA
Location:  38.64°N, 92.12°W
Report Text: KJEF 251953Z 30010KT 6SM -RA BR OVC008 04/03 A2969 RMK AO2 RAB11E24B40 CIG 005V011 SLP046 P0000 T00390028
Loading
Personal Weather Stations






























Interactive Weather Map New forecast layout! Learn more

10-Day Weather Forecast

Advertisements
Track Severe Weather on mobile